Indianapolis, IN (46239)

13:11 EDT le 03 septembre 2015 (GMT -0400)
Wildcat Park-SE Side | | Change Station
CLOSE
Current Station
Stations météorologiques personnelles
Location: Indianapolis, IN
Altitude: 850 ft
Stations météo à proximité

Alt. 850 ft 39.69 °N, 86.03 °W | Updated 12 seconds ago

Ciel dégagé
Ciel dégagé
88.6 ° F
Paraît 92 ° F
N
6.0
Vent Variable Vent de SO
Gusts 9.0 mph

Aujourd'hui
Haut(e) -- | Bas -- ° F
--% Risque de précip.
Hier
Haut(e) -- | Bas -- ° F
Precip. -- pouce
7:13 AM 8:12 PM
Lune gibbeuse décroissante, 68% visible
Pression 29.99 pouce
Visibilité 10.0 Miles terrestres
Nuages Nuages épars 4100 ft
indice de chaleur 92 ° F
Point de rosée 68 ° F
Humidité 50%
Précipitations 0.00 pouce
Profondeur de la couche neigeuse Non disponible.
UV 7 sur 12
Pollen 10.60 sur 12
Qualité de l'air Non disponible.
Flu Activity Non disponible.
METAR KIND 031654Z 24007KT 10SM SCT041 31/19 A3001 RMK AO2 SLP155 TCU DSNT NE T03060189
Pression 29.99 pouce
Visibilité 10.0 Miles terrestres
Nuages Nuages épars 4100 ft
indice de chaleur 92 ° F
Point de rosée 68 ° F
Humidité 50%
Précipitations 0.00 pouce
Profondeur de la couche neigeuse Non disponible.
UV 7 sur 12
Pollen 10.60 sur 12
Qualité de l'air Non disponible.
Flu Activity Non disponible.
METAR KIND 031654Z 24007KT 10SM SCT041 31/19 A3001 RMK AO2 SLP155 TCU DSNT NE T03060189

10-Day Weather Forecast

×

Almanac

Astronomie

Sep. 03, 2015 Lever Coucher
Temps réel
Crépuscule civil
Crépuscule nautique
Crépuscule astronomique
Lune
Durée de lumière visible
Longueur du jour
Tomorrow will be .
, % of the Moon is Illuminated

Extrêmes aujourd'hui

State Highs State Lows

Community

WunderPhotos

Upload Photos

1,851,990 Photos téléchargées !

WunderBlogs® & News

Nearby

Qualité de l'air

  Qualité de l'air Indice de la qualité de l'air Polluant
Not available.

Épaisseur de neige

Station Depth Altitude

Activité sismique

Ville Distance Mag. Time & Date
Minimum magnitude displayed is 2.5.

Températures des eaux côtières

Lieu Température

Stations

Stations météo à proximité

Emplacement de la station Température Refroidissement éolien Point de rosée Humidité Vent Precip. Alt. Mise à jour Type